createdAt,value
2018-12-03T00:00:46.738Z,33.47
2018-12-03T00:03:16.310Z,31.73
2018-12-03T00:05:45.912Z,35.70
2018-12-03T00:08:15.487Z,35.00
2018-12-03T00:10:45.177Z,33.63
2018-12-03T00:13:14.723Z,32.80
2018-12-03T00:15:44.291Z,31.93
2018-12-03T00:18:13.842Z,33.03
2018-12-03T00:20:43.486Z,33.47
2018-12-03T00:23:13.039Z,33.53
2018-12-03T00:25:45.617Z,32.53
2018-12-03T00:28:15.283Z,32.10
2018-12-03T00:30:47.964Z,31.87
2018-12-03T00:33:17.559Z,34.33
2018-12-03T00:35:47.099Z,32.93
2018-12-03T00:38:16.778Z,31.83
2018-12-03T00:40:46.458Z,31.37
2018-12-03T00:43:16.094Z,29.90
2018-12-03T00:45:46.766Z,31.10
2018-12-03T00:48:16.339Z,29.93
2018-12-03T00:50:45.843Z,29.53
2018-12-03T00:53:15.715Z,29.83
2018-12-03T00:55:45.260Z,28.60
2018-12-03T00:58:17.882Z,29.90
2018-12-03T01:00:47.449Z,29.23
2018-12-03T01:03:17.144Z,27.90
2018-12-03T01:05:48.029Z,28.23
2018-12-03T01:08:17.620Z,27.33
2018-12-03T01:10:47.191Z,29.43
2018-12-03T01:13:16.893Z,31.03
2018-12-03T01:15:46.439Z,30.77
2018-12-03T01:18:16.103Z,27.77
2018-12-03T01:20:45.750Z,27.83
2018-12-03T01:23:15.317Z,28.93
2018-12-03T01:25:45.249Z,28.93
2018-12-03T01:28:14.824Z,30.00
2018-12-03T01:30:44.379Z,29.70
2018-12-03T01:33:13.983Z,28.50
2018-12-03T01:35:43.646Z,28.73
2018-12-03T01:38:13.241Z,29.00
2018-12-03T01:40:42.808Z,27.77
2018-12-03T01:43:12.380Z,27.67
2018-12-03T01:45:42.063Z,26.80
2018-12-03T01:48:11.612Z,28.67
2018-12-03T01:50:41.275Z,29.90
2018-12-03T01:53:10.859Z,26.47
2018-12-03T01:55:40.595Z,25.27
2018-12-03T01:58:10.287Z,25.73
2018-12-03T02:00:39.882Z,24.40
2018-12-03T02:03:09.447Z,24.63
2018-12-03T02:05:39.049Z,34.17
2018-12-03T02:08:08.679Z,24.17
2018-12-03T02:10:38.286Z,23.73
2018-12-03T02:13:07.944Z,22.93
2018-12-03T02:15:37.626Z,23.40
2018-12-03T02:18:07.672Z,24.10
2018-12-03T02:20:37.232Z,25.57
2018-12-03T02:23:06.908Z,26.10
2018-12-03T02:25:36.583Z,26.37
2018-12-03T02:28:06.938Z,25.93
2018-12-03T02:30:36.614Z,28.37
2018-12-03T02:33:06.190Z,27.07
2018-12-03T02:35:35.772Z,26.77
2018-12-03T02:38:05.359Z,30.43
2018-12-03T02:40:34.994Z,28.90
2018-12-03T02:43:04.552Z,31.97
2018-12-03T02:45:34.159Z,32.30
2018-12-03T02:48:03.786Z,30.40
2018-12-03T02:50:33.309Z,31.23
2018-12-03T02:53:02.933Z,32.03
2018-12-03T02:55:32.468Z,31.20
2018-12-03T02:58:02.292Z,31.37
2018-12-03T03:00:32.878Z,32.40
2018-12-03T03:03:02.398Z,31.30
2018-12-03T03:05:32.114Z,29.90
2018-12-03T03:08:01.725Z,30.50
2018-12-03T03:10:31.258Z,30.50
2018-12-03T03:13:00.840Z,31.43
2018-12-03T03:15:30.412Z,29.77
2018-12-03T03:17:59.961Z,27.37
2018-12-03T03:20:29.654Z,25.73
2018-12-03T03:22:59.255Z,27.53
2018-12-03T03:25:28.866Z,26.47
2018-12-03T03:27:58.469Z,26.27
2018-12-03T03:30:28.055Z,27.10
2018-12-03T03:32:58.749Z,27.97
2018-12-03T03:35:29.393Z,28.23
2018-12-03T03:37:59.033Z,29.53
2018-12-03T03:40:28.636Z,30.10
2018-12-03T03:42:58.269Z,30.20
2018-12-03T03:45:28.071Z,29.93
2018-12-03T03:47:57.650Z,29.23
2018-12-03T03:50:27.376Z,29.27
2018-12-03T03:52:57.040Z,30.60
2018-12-03T03:55:26.599Z,28.67
2018-12-03T03:57:56.171Z,25.13
2018-12-03T04:00:25.897Z,23.23
2018-12-03T04:02:55.678Z,22.30
2018-12-03T04:05:25.297Z,22.90
2018-12-03T04:07:54.880Z,22.20
2018-12-03T04:10:24.542Z,20.57
2018-12-03T04:12:54.219Z,20.07
2018-12-03T04:15:23.842Z,19.63
2018-12-03T04:17:53.454Z,20.47
2018-12-03T04:20:23.135Z,20.13
2018-12-03T04:22:55.359Z,20.10
2018-12-03T04:25:25.030Z,22.00
2018-12-03T04:27:57.713Z,22.30
2018-12-03T04:30:27.337Z,22.87
2018-12-03T04:32:56.913Z,23.77
2018-12-03T04:35:28.356Z,22.03
2018-12-03T04:37:57.909Z,23.77
2018-12-03T04:40:27.470Z,24.90
2018-12-03T04:42:58.179Z,25.47
2018-12-03T04:45:27.749Z,25.57
2018-12-03T04:47:57.311Z,26.13
2018-12-03T04:50:26.918Z,27.23
2018-12-03T04:52:56.497Z,25.90
2018-12-03T04:55:26.022Z,25.90
2018-12-03T04:57:55.643Z,30.77
2018-12-03T05:00:25.342Z,31.10
2018-12-03T05:02:54.839Z,29.40
2018-12-03T05:05:24.553Z,29.20
2018-12-03T05:07:54.150Z,30.00
2018-12-03T05:10:24.177Z,25.47
2018-12-03T05:12:54.962Z,26.93
2018-12-03T05:15:24.623Z,26.87
2018-12-03T05:17:54.256Z,28.90
2018-12-03T05:20:25.603Z,26.33
2018-12-03T05:22:55.386Z,27.23
2018-12-03T05:25:25.219Z,26.60
2018-12-03T05:27:54.896Z,27.53
2018-12-03T05:30:24.604Z,27.63
2018-12-03T05:32:54.209Z,28.27
2018-12-03T05:35:29.303Z,29.70
2018-12-03T05:37:59.466Z,29.87
2018-12-03T05:40:31.014Z,28.57
2018-12-03T05:43:01.117Z,30.03
2018-12-03T05:45:30.898Z,29.97
2018-12-03T05:48:00.589Z,27.40
2018-12-03T05:50:30.366Z,24.43
2018-12-03T05:52:59.889Z,25.63
2018-12-03T05:55:29.527Z,25.43
2018-12-03T05:57:59.176Z,23.47
2018-12-03T06:00:28.882Z,24.10
2018-12-03T06:02:58.427Z,24.27
2018-12-03T06:05:28.098Z,21.50
2018-12-03T06:07:57.814Z,23.67
2018-12-03T06:10:27.511Z,24.47
2018-12-03T06:12:57.188Z,24.90
2018-12-03T06:15:28.019Z,27.07
2018-12-03T06:17:57.660Z,26.13
2018-12-03T06:20:27.253Z,29.47
2018-12-03T06:22:57.179Z,32.43
2018-12-03T06:25:29.609Z,33.20
2018-12-03T06:27:59.258Z,33.53
2018-12-03T06:30:29.174Z,31.47
2018-12-03T06:32:58.888Z,32.17
2018-12-03T06:35:28.557Z,33.80
2018-12-03T06:37:58.221Z,35.83
2018-12-03T06:40:30.765Z,38.40
2018-12-03T06:43:00.379Z,37.37
2018-12-03T06:45:30.081Z,37.83
2018-12-03T06:48:09.800Z,36.67
2018-12-03T06:50:39.749Z,36.10
2018-12-03T06:53:09.455Z,35.43
2018-12-03T06:55:39.050Z,34.97
2018-12-03T06:58:08.763Z,36.97
2018-12-03T07:00:38.357Z,37.63
2018-12-03T07:03:08.017Z,37.30
2018-12-03T07:05:37.699Z,36.03
2018-12-03T07:08:09.380Z,34.53
2018-12-03T07:10:39.282Z,32.30
2018-12-03T07:13:12.283Z,32.23
2018-12-03T07:15:44.097Z,32.00
2018-12-03T07:18:14.281Z,35.37
2018-12-03T07:20:43.925Z,41.70
2018-12-03T07:23:13.629Z,33.80
2018-12-03T07:25:43.338Z,30.50
2018-12-03T07:28:13.023Z,31.50
2018-12-03T07:30:42.645Z,26.00
2018-12-03T07:33:12.219Z,25.07
2018-12-03T07:35:42.154Z,22.23
2018-12-03T07:38:11.873Z,20.87
2018-12-03T07:40:41.589Z,21.57
2018-12-03T07:43:11.406Z,22.77
2018-12-03T07:45:40.999Z,21.37
2018-12-03T07:48:11.560Z,22.63
2018-12-03T07:50:41.211Z,21.70
2018-12-03T07:53:11.901Z,19.80
2018-12-03T07:55:41.674Z,20.97
2018-12-03T07:58:17.981Z,20.93
2018-12-03T08:00:57.920Z,21.23
2018-12-03T08:03:27.799Z,22.63
2018-12-03T08:05:57.729Z,23.10
2018-12-03T08:08:27.427Z,25.00
2018-12-03T08:11:00.384Z,25.50
2018-12-03T08:13:30.109Z,26.00
2018-12-03T08:15:59.741Z,27.30
2018-12-03T08:18:29.433Z,28.00
2018-12-03T08:21:08.157Z,27.53
2018-12-03T08:23:51.097Z,27.53
2018-12-03T08:26:20.770Z,27.90
2018-12-03T08:28:50.451Z,30.27
2018-12-03T08:31:20.197Z,29.00
2018-12-03T08:33:49.870Z,27.90
2018-12-03T08:36:19.607Z,30.40
2018-12-03T08:38:49.275Z,28.60
2018-12-03T08:41:18.845Z,28.90
2018-12-03T08:43:48.470Z,27.37
2018-12-03T08:46:18.149Z,26.77
2018-12-03T08:48:47.727Z,26.87
2018-12-03T08:51:17.342Z,26.60
2018-12-03T08:53:48.648Z,26.20
2018-12-03T08:56:18.224Z,25.83
2018-12-03T08:58:47.785Z,27.97
2018-12-03T09:01:22.820Z,26.97
2018-12-03T09:04:03.493Z,28.97
2018-12-03T09:06:33.197Z,28.63
2018-12-03T09:09:02.911Z,28.63
2018-12-03T09:11:33.340Z,27.83
2018-12-03T09:14:03.042Z,28.37
2018-12-03T09:16:32.582Z,27.40
2018-12-03T09:19:02.270Z,25.67
2018-12-03T09:21:31.790Z,25.93
2018-12-03T09:24:01.657Z,26.43
2018-12-03T09:26:31.314Z,26.77
2018-12-03T09:29:01.239Z,26.73
2018-12-03T09:31:30.796Z,28.40
2018-12-03T09:34:00.677Z,26.47
2018-12-03T09:36:30.900Z,27.00
2018-12-03T09:39:13.212Z,27.43
2018-12-03T09:41:43.651Z,29.03
2018-12-03T09:44:13.375Z,28.40
2018-12-03T09:46:43.023Z,28.57
2018-12-03T09:49:12.613Z,29.30
2018-12-03T09:51:42.182Z,28.93
2018-12-03T09:54:12.407Z,32.37
2018-12-03T09:56:49.289Z,29.23
2018-12-03T09:59:21.327Z,27.67
2018-12-03T10:01:54.570Z,26.13
2018-12-03T10:04:37.622Z,25.23
2018-12-03T10:07:07.370Z,25.33
2018-12-03T10:09:39.480Z,23.70
2018-12-03T10:12:10.344Z,23.10
2018-12-03T10:14:40.019Z,25.73
2018-12-03T10:17:09.590Z,26.90
2018-12-03T10:19:39.150Z,28.17
2018-12-03T10:22:09.338Z,37.60
2018-12-03T10:24:39.240Z,30.53
2018-12-03T10:27:12.282Z,28.87
2018-12-03T10:29:42.792Z,25.67
2018-12-03T10:32:19.292Z,24.60
2018-12-03T10:34:48.922Z,16.10
2018-12-03T10:37:21.582Z,12.17
2018-12-03T10:39:51.741Z,13.27
2018-12-03T10:42:21.379Z,13.50
2018-12-03T10:44:51.225Z,14.87
2018-12-03T10:47:20.772Z,12.00
2018-12-03T10:49:50.424Z,13.33
2018-12-03T10:52:22.860Z,14.00
2018-12-03T10:54:52.875Z,13.87
2018-12-03T10:57:23.890Z,12.53
2018-12-03T10:59:57.190Z,12.73
2018-12-03T11:02:37.435Z,11.73
2018-12-03T11:05:13.030Z,12.50
2018-12-03T11:07:42.691Z,14.93
2018-12-03T11:10:12.263Z,12.87
2018-12-03T11:12:41.964Z,13.70
2018-12-03T11:15:15.015Z,12.77
2018-12-03T11:17:45.065Z,14.17
2018-12-03T11:20:14.668Z,13.60
2018-12-03T11:22:45.461Z,13.03
2018-12-03T11:25:17.437Z,14.67
2018-12-03T11:27:49.718Z,14.20
2018-12-03T11:30:19.351Z,14.87
2018-12-03T11:32:49.252Z,15.27
2018-12-03T11:35:28.154Z,15.90
2018-12-03T11:38:11.185Z,15.80
2018-12-03T11:40:50.621Z,15.63
2018-12-03T11:43:20.560Z,15.37
2018-12-03T11:45:50.152Z,15.03
2018-12-03T11:48:20.169Z,16.20
2018-12-03T11:50:49.723Z,15.73
2018-12-03T11:53:19.300Z,16.83
2018-12-03T11:55:48.963Z,17.20
2018-12-03T11:58:18.551Z,19.17
2018-12-03T12:00:48.206Z,17.47
2018-12-03T12:03:18.106Z,17.03
2018-12-03T12:05:47.761Z,16.83
2018-12-03T12:08:17.301Z,17.13
2018-12-03T12:10:46.929Z,18.17
2018-12-03T12:13:16.745Z,18.17
2018-12-03T12:15:46.334Z,17.57
2018-12-03T12:18:15.899Z,16.87
2018-12-03T12:20:45.567Z,17.83
2018-12-03T12:23:15.165Z,17.33
2018-12-03T12:25:44.756Z,17.80
2018-12-03T12:28:14.375Z,17.27
2018-12-03T12:30:44.086Z,18.27
2018-12-03T12:33:13.791Z,17.63
2018-12-03T12:35:43.376Z,24.72
2018-12-03T12:38:13.005Z,18.00
2018-12-03T12:40:42.715Z,18.33
2018-12-03T12:43:12.329Z,19.93
2018-12-03T12:45:53.778Z,21.90
2018-12-03T12:48:23.332Z,20.17
2018-12-03T12:50:52.887Z,21.27
2018-12-03T12:53:22.509Z,21.97
2018-12-03T12:55:52.027Z,21.07
2018-12-03T12:58:21.783Z,22.20
2018-12-03T13:00:51.399Z,21.80
2018-12-03T13:03:21.107Z,21.90
2018-12-03T13:05:50.731Z,22.03
2018-12-03T13:08:20.562Z,22.43
2018-12-03T13:10:50.243Z,23.33
2018-12-03T13:13:20.008Z,24.63
2018-12-03T13:15:52.877Z,23.73
2018-12-03T13:18:22.472Z,22.83
2018-12-03T13:20:52.895Z,22.67
2018-12-03T13:23:22.499Z,24.17
2018-12-03T13:25:52.138Z,23.77
2018-12-03T13:28:21.808Z,23.27
2018-12-03T13:30:51.316Z,23.67
2018-12-03T13:33:21.108Z,25.10
2018-12-03T13:35:50.725Z,25.73
2018-12-03T13:38:20.423Z,27.30
2018-12-03T13:40:50.215Z,27.43
2018-12-03T13:43:19.838Z,28.53
2018-12-03T13:45:49.468Z,33.13
2018-12-03T13:48:19.070Z,36.40
2018-12-03T13:50:48.689Z,34.63
2018-12-03T13:53:18.386Z,34.43
2018-12-03T13:55:48.087Z,31.90
2018-12-03T13:58:17.729Z,31.37
2018-12-03T14:00:48.150Z,29.73
2018-12-03T14:03:22.132Z,28.87
2018-12-03T14:06:05.133Z,27.83
2018-12-03T14:08:48.829Z,28.50
2018-12-03T14:11:33.197Z,36.97
2018-12-03T14:14:16.227Z,50.80
2018-12-03T14:16:59.282Z,39.87
2018-12-03T14:19:31.755Z,32.43
2018-12-03T14:22:09.503Z,30.83
2018-12-03T14:24:39.199Z,26.00
2018-12-03T14:27:09.068Z,27.13
2018-12-03T14:29:38.839Z,25.43
2018-12-03T14:32:08.586Z,26.97
2018-12-03T14:34:38.300Z,24.60
2018-12-03T14:37:07.896Z,25.57
2018-12-03T14:39:37.568Z,25.83
2018-12-03T14:42:07.417Z,24.97
2018-12-03T14:44:37.016Z,25.67
2018-12-03T14:47:06.677Z,26.67
2018-12-03T14:49:36.333Z,27.90
2018-12-03T14:52:08.060Z,30.83
2018-12-03T14:54:37.700Z,31.17
2018-12-03T14:57:07.438Z,30.10
2018-12-03T14:59:37.012Z,29.57
2018-12-03T15:02:06.636Z,28.67
2018-12-03T15:04:36.335Z,30.23
2018-12-03T15:07:05.987Z,29.60
2018-12-03T15:09:35.671Z,27.03
2018-12-03T15:12:05.350Z,35.83
2018-12-03T15:14:34.996Z,36.43
2018-12-03T15:17:04.537Z,37.90
2018-12-03T15:19:34.111Z,33.07
2018-12-03T15:22:03.687Z,29.93
2018-12-03T15:24:33.379Z,28.53
2018-12-03T15:27:02.991Z,27.10
2018-12-03T15:29:32.637Z,29.40
2018-12-03T15:32:02.157Z,30.67
2018-12-03T15:34:33.031Z,30.80
2018-12-03T15:37:02.874Z,31.63
2018-12-03T15:39:32.491Z,30.27
2018-12-03T15:42:02.113Z,31.03
2018-12-03T15:44:31.817Z,29.77
2018-12-03T15:47:01.396Z,29.80
2018-12-03T15:49:31.061Z,34.30
2018-12-03T15:52:00.977Z,31.77
2018-12-03T15:54:30.592Z,28.27
2018-12-03T15:57:00.206Z,26.60
2018-12-03T15:59:29.816Z,30.13
2018-12-03T16:01:59.576Z,29.80
2018-12-03T16:04:29.343Z,39.37
2018-12-03T16:06:58.931Z,38.23
2018-12-03T16:09:28.520Z,36.87
2018-12-03T16:11:58.193Z,36.57
2018-12-03T16:14:27.962Z,37.00
2018-12-03T16:16:57.519Z,38.20
2018-12-03T16:19:30.340Z,34.87
2018-12-03T16:21:59.948Z,33.03
2018-12-03T16:24:29.547Z,32.90
2018-12-03T16:26:59.258Z,36.87
2018-12-03T16:29:28.854Z,40.67
2018-12-03T16:32:00.241Z,41.10
2018-12-03T16:34:29.772Z,53.47
2018-12-03T16:36:59.534Z,50.77
2018-12-03T16:39:30.029Z,43.50
2018-12-03T16:41:59.626Z,46.23
2018-12-03T16:44:29.339Z,50.23
2018-12-03T16:46:59.223Z,48.43
2018-12-03T16:49:28.894Z,53.47
2018-12-03T16:51:59.604Z,62.40
2018-12-03T16:54:29.159Z,64.03
2018-12-03T16:56:58.835Z,67.03
2018-12-03T16:59:28.513Z,65.53
2018-12-03T17:01:58.135Z,69.83
2018-12-03T17:04:27.845Z,67.00
2018-12-03T17:06:57.563Z,67.13
2018-12-03T17:09:27.168Z,63.13
2018-12-03T17:11:56.882Z,59.60
2018-12-03T17:14:26.692Z,60.40
2018-12-03T17:16:56.278Z,60.13
2018-12-03T17:20:06.050Z,57.80
2018-12-03T17:22:49.104Z,46.23
2018-12-03T17:25:23.432Z,42.07
2018-12-03T17:27:53.457Z,39.83
2018-12-03T17:30:23.616Z,44.17
2018-12-03T17:32:53.744Z,44.50
2018-12-03T17:35:23.833Z,44.93
2018-12-03T17:37:53.883Z,48.63
2018-12-03T17:40:23.881Z,47.23
2018-12-03T17:42:53.839Z,37.50
2018-12-03T17:45:23.853Z,36.87
2018-12-03T17:47:53.945Z,35.13
2018-12-03T17:50:24.763Z,43.80
2018-12-03T17:52:54.919Z,48.07
2018-12-03T17:55:28.102Z,68.57
2018-12-03T17:57:58.954Z,75.70
2018-12-03T18:00:29.224Z,66.97
2018-12-03T18:02:59.192Z,69.53
2018-12-03T18:05:29.103Z,50.23
2018-12-03T18:07:59.125Z,52.43
2018-12-03T18:10:29.186Z,48.20
2018-12-03T18:12:59.268Z,67.93
2018-12-03T18:15:32.132Z,49.03
2018-12-03T18:18:02.789Z,42.47
2018-12-03T18:20:32.868Z,34.37
2018-12-03T18:23:03.428Z,34.93
2018-12-03T18:25:33.397Z,37.63
2018-12-03T18:28:03.680Z,41.67
2018-12-03T18:30:33.608Z,47.67
2018-12-03T18:33:03.936Z,52.10
2018-12-03T18:35:34.244Z,52.00
2018-12-03T18:38:04.328Z,47.23
2018-12-03T18:40:34.185Z,44.27
2018-12-03T18:43:03.984Z,40.77
2018-12-03T18:45:34.108Z,44.73
2018-12-03T18:48:05.289Z,41.77
2018-12-03T18:50:39.518Z,48.67
2018-12-03T18:53:21.437Z,50.97
2018-12-03T18:55:51.576Z,44.27
2018-12-03T18:58:35.291Z,42.97
2018-12-03T19:01:09.732Z,40.93
2018-12-03T19:03:40.461Z,43.90
2018-12-03T19:06:11.326Z,44.47
2018-12-03T19:08:41.513Z,42.00
2018-12-03T19:11:11.527Z,39.83
2018-12-03T19:13:47.717Z,43.90
2018-12-03T19:16:19.463Z,43.50
2018-12-03T19:18:50.376Z,41.03
2018-12-03T19:21:24.264Z,41.00
2018-12-03T19:23:54.320Z,44.60
2018-12-03T19:26:28.978Z,41.90
2018-12-03T19:29:03.557Z,39.27
2018-12-03T19:31:34.690Z,40.27
2018-12-03T19:34:06.917Z,41.83
2018-12-03T19:36:39.994Z,40.43
2018-12-03T19:39:12.322Z,43.57
2018-12-03T19:41:42.380Z,43.67
2018-12-03T19:44:13.468Z,43.23
2018-12-03T19:46:47.655Z,46.10
2018-12-03T19:49:23.232Z,46.87
2018-12-03T19:51:53.209Z,46.97
2018-12-03T19:54:27.257Z,46.87
2018-12-03T19:57:00.270Z,44.33
2018-12-03T19:59:36.629Z,44.10
2018-12-03T20:02:06.731Z,45.87
2018-12-03T20:04:43.708Z,51.50
2018-12-03T20:07:13.724Z,48.70
2018-12-03T20:12:22.009Z,45.20
2018-12-03T20:14:53.382Z,46.03
2018-12-03T20:17:33.439Z,44.40
2018-12-03T20:20:08.177Z,47.10
2018-12-03T20:22:49.454Z,47.43
2018-12-03T20:25:25.269Z,48.20
2018-12-03T20:28:01.241Z,53.87
2018-12-03T20:33:31.819Z,53.37
2018-12-03T20:36:17.920Z,58.73
2018-12-03T20:38:59.958Z,50.83
2018-12-03T20:41:37.285Z,53.80
2018-12-03T20:44:20.798Z,58.03
2018-12-03T20:47:03.300Z,64.60
2018-12-03T20:49:47.343Z,57.90
2018-12-03T20:52:25.325Z,58.27
2018-12-03T20:55:08.447Z,58.80
2018-12-03T20:57:38.510Z,53.07
2018-12-03T21:00:10.678Z,52.67
2018-12-03T21:02:41.653Z,56.67
2018-12-03T21:05:11.878Z,68.00
2018-12-03T21:07:41.792Z,55.73
2018-12-03T21:10:11.721Z,51.30
2018-12-03T21:12:47.005Z,53.10
2018-12-03T21:15:16.987Z,50.17
2018-12-03T21:17:48.337Z,54.53
2018-12-03T21:20:28.305Z,50.93
2018-12-03T21:22:58.638Z,43.70
2018-12-03T21:25:29.768Z,38.50
2018-12-03T21:27:59.745Z,36.03
2018-12-03T21:30:29.647Z,36.80
2018-12-03T21:32:59.659Z,35.13
2018-12-03T21:35:31.773Z,34.10
2018-12-03T21:38:01.823Z,33.87
2018-12-03T21:40:31.915Z,44.65
2018-12-03T21:43:02.094Z,39.80
2018-12-03T21:45:31.949Z,41.37
2018-12-03T21:48:01.851Z,37.93
2018-12-03T21:50:32.074Z,38.50
2018-12-03T21:53:02.336Z,38.43
2018-12-03T21:55:32.414Z,37.20
2018-12-03T21:58:02.398Z,37.63
2018-12-03T22:00:32.445Z,40.57
2018-12-03T22:03:02.878Z,49.63
2018-12-03T22:05:32.985Z,54.63
2018-12-03T22:08:03.329Z,48.47
2018-12-03T22:10:33.240Z,42.73
2018-12-03T22:13:03.439Z,42.67
2018-12-03T22:15:33.550Z,40.50
2018-12-03T22:18:03.840Z,42.07
2018-12-03T22:20:33.818Z,44.03
2018-12-03T22:23:03.816Z,46.53
2018-12-03T22:25:33.834Z,56.60
2018-12-03T22:28:03.839Z,64.67
2018-12-03T22:30:33.855Z,61.53
2018-12-03T22:33:04.749Z,66.03
2018-12-03T22:35:34.775Z,63.63
2018-12-03T22:38:04.800Z,65.47
2018-12-03T22:40:35.056Z,59.07
2018-12-03T22:43:05.109Z,51.27
2018-12-03T22:45:35.099Z,48.90
2018-12-03T22:48:05.122Z,49.33
2018-12-03T22:50:35.031Z,44.50
2018-12-03T22:53:05.068Z,42.07
2018-12-03T22:55:35.679Z,37.80
2018-12-03T22:58:05.682Z,38.70
2018-12-03T23:00:38.601Z,37.87
2018-12-03T23:03:08.774Z,42.27
2018-12-03T23:05:38.785Z,46.03
2018-12-03T23:08:08.907Z,42.20
2018-12-03T23:10:39.157Z,40.20
2018-12-03T23:13:12.043Z,40.83
2018-12-03T23:15:42.027Z,40.47
2018-12-03T23:18:12.117Z,40.83
2018-12-03T23:20:42.329Z,43.13
2018-12-03T23:23:12.375Z,43.40
2018-12-03T23:25:42.389Z,40.33
2018-12-03T23:28:12.437Z,40.73
2018-12-03T23:30:42.480Z,40.87
2018-12-03T23:33:12.617Z,41.33
2018-12-03T23:35:42.587Z,38.87
2018-12-03T23:38:12.931Z,37.50
2018-12-03T23:40:42.949Z,34.73
2018-12-03T23:43:13.111Z,33.90
2018-12-03T23:45:43.123Z,35.80
2018-12-03T23:48:13.108Z,37.87
2018-12-03T23:50:43.146Z,37.13
2018-12-03T23:53:13.120Z,37.20
2018-12-03T23:55:43.037Z,36.80
2018-12-03T23:58:13.056Z,37.10
